sensor_id;sensor_type;location;lat;lon;timestamp;P1;durP1;ratioP1;P2;durP2;ratioP2
21827;SDS011;11076;47.942;11.804;2023-02-15T00:02:52;44.70;;;10.00;;
21827;SDS011;11076;47.942;11.804;2023-02-15T00:07:55;74.10;;;11.13;;
21827;SDS011;11076;47.942;11.804;2023-02-15T00:12:57;44.87;;;11.37;;
21827;SDS011;11076;47.942;11.804;2023-02-15T00:18:02;65.57;;;9.93;;
21827;SDS011;11076;47.942;11.804;2023-02-15T00:23:04;31.37;;;10.33;;
21827;SDS011;11076;47.942;11.804;2023-02-15T00:28:06;45.53;;;11.37;;
21827;SDS011;11076;47.942;11.804;2023-02-15T00:33:09;32.20;;;9.40;;
21827;SDS011;11076;47.942;11.804;2023-02-15T00:38:11;20.33;;;8.47;;
21827;SDS011;11076;47.942;11.804;2023-02-15T00:43:14;30.27;;;8.77;;
21827;SDS011;11076;47.942;11.804;2023-02-15T00:48:17;24.00;;;9.10;;
21827;SDS011;11076;47.942;11.804;2023-02-15T00:53:19;57.17;;;9.00;;
21827;SDS011;11076;47.942;11.804;2023-02-15T00:58:22;134.20;;;10.30;;
21827;SDS011;11076;47.942;11.804;2023-02-15T01:03:25;88.60;;;10.47;;
21827;SDS011;11076;47.942;11.804;2023-02-15T01:08:27;51.43;;;8.57;;
21827;SDS011;11076;47.942;11.804;2023-02-15T01:13:29;44.50;;;8.20;;
21827;SDS011;11076;47.942;11.804;2023-02-15T01:18:32;49.67;;;7.47;;
21827;SDS011;11076;47.942;11.804;2023-02-15T01:23:35;28.03;;;7.73;;
21827;SDS011;11076;47.942;11.804;2023-02-15T01:28:37;61.87;;;9.47;;
21827;SDS011;11076;47.942;11.804;2023-02-15T01:33:40;38.73;;;8.60;;
21827;SDS011;11076;47.942;11.804;2023-02-15T01:38:44;35.10;;;8.37;;
21827;SDS011;11076;47.942;11.804;2023-02-15T01:43:53;30.97;;;7.80;;
21827;SDS011;11076;47.942;11.804;2023-02-15T01:49:02;31.87;;;6.70;;
21827;SDS011;11076;47.942;11.804;2023-02-15T01:54:23;25.13;;;9.97;;
21827;SDS011;11076;47.942;11.804;2023-02-15T01:59:39;18.00;;;7.23;;
21827;SDS011;11076;47.942;11.804;2023-02-15T02:04:48;12.53;;;7.73;;
21827;SDS011;11076;47.942;11.804;2023-02-15T02:09:57;24.73;;;8.80;;
21827;SDS011;11076;47.942;11.804;2023-02-15T02:15:03;38.23;;;8.40;;
21827;SDS011;11076;47.942;11.804;2023-02-15T02:42:01;195.80;;;15.00;;
21827;SDS011;11076;47.942;11.804;2023-02-15T02:58:09;54.83;;;7.80;;
21827;SDS011;11076;47.942;11.804;2023-02-15T03:03:26;15.80;;;7.23;;
21827;SDS011;11076;47.942;11.804;2023-02-15T03:08:34;13.37;;;7.37;;
21827;SDS011;11076;47.942;11.804;2023-02-15T03:13:44;10.90;;;6.73;;
21827;SDS011;11076;47.942;11.804;2023-02-15T03:18:48;12.57;;;7.57;;
21827;SDS011;11076;47.942;11.804;2023-02-15T03:24:16;11.10;;;7.37;;
21827;SDS011;11076;47.942;11.804;2023-02-15T03:29:24;20.87;;;7.83;;
21827;SDS011;11076;47.942;11.804;2023-02-15T03:34:29;11.40;;;6.87;;
21827;SDS011;11076;47.942;11.804;2023-02-15T03:39:39;11.37;;;6.43;;
21827;SDS011;11076;47.942;11.804;2023-02-15T03:44:51;14.37;;;8.70;;
21827;SDS011;11076;47.942;11.804;2023-02-15T03:50:19;28.73;;;8.70;;
21827;SDS011;11076;47.942;11.804;2023-02-15T03:55:47;35.13;;;7.73;;
21827;SDS011;11076;47.942;11.804;2023-02-15T04:01:11;27.23;;;7.40;;
21827;SDS011;11076;47.942;11.804;2023-02-15T04:06:46;17.30;;;7.50;;
21827;SDS011;11076;47.942;11.804;2023-02-15T04:11:48;28.27;;;6.87;;
21827;SDS011;11076;47.942;11.804;2023-02-15T04:16:51;21.10;;;6.60;;
21827;SDS011;11076;47.942;11.804;2023-02-15T04:21:53;24.17;;;7.90;;
21827;SDS011;11076;47.942;11.804;2023-02-15T04:27:14;12.00;;;4.83;;
21827;SDS011;11076;47.942;11.804;2023-02-15T04:32:18;73.30;;;9.37;;
21827;SDS011;11076;47.942;11.804;2023-02-15T04:37:21;53.60;;;7.63;;
21827;SDS011;11076;47.942;11.804;2023-02-15T04:42:23;34.97;;;7.90;;
21827;SDS011;11076;47.942;11.804;2023-02-15T04:47:27;15.10;;;7.23;;
21827;SDS011;11076;47.942;11.804;2023-02-15T04:52:29;33.97;;;8.90;;
21827;SDS011;11076;47.942;11.804;2023-02-15T04:57:32;19.40;;;7.83;;
21827;SDS011;11076;47.942;11.804;2023-02-15T05:02:34;5.33;;;3.83;;
21827;SDS011;11076;47.942;11.804;2023-02-15T05:07:37;7.67;;;5.27;;
21827;SDS011;11076;47.942;11.804;2023-02-15T05:12:39;23.30;;;7.13;;
21827;SDS011;11076;47.942;11.804;2023-02-15T05:17:41;12.20;;;7.07;;
21827;SDS011;11076;47.942;11.804;2023-02-15T05:22:44;9.23;;;5.87;;
21827;SDS011;11076;47.942;11.804;2023-02-15T05:27:46;12.57;;;7.30;;
21827;SDS011;11076;47.942;11.804;2023-02-15T05:33:07;15.33;;;8.73;;
21827;SDS011;11076;47.942;11.804;2023-02-15T05:38:10;15.00;;;8.27;;
21827;SDS011;11076;47.942;11.804;2023-02-15T05:43:12;15.93;;;7.03;;
21827;SDS011;11076;47.942;11.804;2023-02-15T05:48:15;9.93;;;6.47;;
21827;SDS011;11076;47.942;11.804;2023-02-15T05:53:18;12.73;;;7.53;;
21827;SDS011;11076;47.942;11.804;2023-02-15T05:58:20;11.20;;;6.17;;
21827;SDS011;11076;47.942;11.804;2023-02-15T06:03:23;9.87;;;6.20;;
21827;SDS011;11076;47.942;11.804;2023-02-15T06:08:27;10.67;;;6.23;;
21827;SDS011;11076;47.942;11.804;2023-02-15T06:13:30;10.10;;;6.27;;
21827;SDS011;11076;47.942;11.804;2023-02-15T06:18:33;9.90;;;5.50;;
21827;SDS011;11076;47.942;11.804;2023-02-15T06:23:36;7.17;;;4.80;;
21827;SDS011;11076;47.942;11.804;2023-02-15T06:28:38;5.20;;;4.13;;
21827;SDS011;11076;47.942;11.804;2023-02-15T06:33:43;12.33;;;6.13;;
21827;SDS011;11076;47.942;11.804;2023-02-15T06:38:45;7.30;;;5.03;;
21827;SDS011;11076;47.942;11.804;2023-02-15T06:43:47;10.83;;;6.90;;
21827;SDS011;11076;47.942;11.804;2023-02-15T06:48:50;14.57;;;7.20;;
21827;SDS011;11076;47.942;11.804;2023-02-15T06:53:52;11.40;;;6.87;;
21827;SDS011;11076;47.942;11.804;2023-02-15T06:58:55;10.43;;;6.67;;
21827;SDS011;11076;47.942;11.804;2023-02-15T07:03:58;12.67;;;7.47;;
21827;SDS011;11076;47.942;11.804;2023-02-15T07:09:00;10.90;;;6.20;;
21827;SDS011;11076;47.942;11.804;2023-02-15T07:14:04;17.37;;;8.63;;
21827;SDS011;11076;47.942;11.804;2023-02-15T07:19:06;13.23;;;7.17;;
21827;SDS011;11076;47.942;11.804;2023-02-15T07:24:09;12.33;;;7.30;;
21827;SDS011;11076;47.942;11.804;2023-02-15T07:29:11;10.50;;;6.23;;
21827;SDS011;11076;47.942;11.804;2023-02-15T07:34:13;10.60;;;6.20;;
21827;SDS011;11076;47.942;11.804;2023-02-15T07:39:16;9.57;;;6.33;;
21827;SDS011;11076;47.942;11.804;2023-02-15T07:44:18;20.95;;;12.73;;
21827;SDS011;11076;47.942;11.804;2023-02-15T07:49:21;12.73;;;8.30;;
21827;SDS011;11076;47.942;11.804;2023-02-15T07:54:23;15.17;;;8.53;;
21827;SDS011;11076;47.942;11.804;2023-02-15T07:59:25;9.87;;;6.50;;
21827;SDS011;11076;47.942;11.804;2023-02-15T08:04:29;10.37;;;6.70;;
21827;SDS011;11076;47.942;11.804;2023-02-15T08:09:31;8.97;;;5.87;;
21827;SDS011;11076;47.942;11.804;2023-02-15T08:14:34;9.23;;;6.37;;
21827;SDS011;11076;47.942;11.804;2023-02-15T08:19:36;10.03;;;6.40;;
21827;SDS011;11076;47.942;11.804;2023-02-15T08:24:39;13.23;;;7.97;;
21827;SDS011;11076;47.942;11.804;2023-02-15T08:29:43;12.10;;;6.93;;
21827;SDS011;11076;47.942;11.804;2023-02-15T08:34:45;8.93;;;6.27;;
21827;SDS011;11076;47.942;11.804;2023-02-15T08:39:48;10.73;;;6.57;;
21827;SDS011;11076;47.942;11.804;2023-02-15T08:44:51;10.83;;;6.80;;
21827;SDS011;11076;47.942;11.804;2023-02-15T08:49:53;9.03;;;6.23;;
21827;SDS011;11076;47.942;11.804;2023-02-15T08:54:57;8.43;;;5.87;;
21827;SDS011;11076;47.942;11.804;2023-02-15T09:00:00;10.27;;;6.63;;
21827;SDS011;11076;47.942;11.804;2023-02-15T09:05:02;10.60;;;7.13;;
21827;SDS011;11076;47.942;11.804;2023-02-15T09:10:05;11.03;;;6.20;;
21827;SDS011;11076;47.942;11.804;2023-02-15T09:15:08;8.77;;;5.70;;
21827;SDS011;11076;47.942;11.804;2023-02-15T09:20:11;11.27;;;6.63;;
21827;SDS011;11076;47.942;11.804;2023-02-15T09:25:13;11.40;;;7.73;;
21827;SDS011;11076;47.942;11.804;2023-02-15T09:30:16;11.43;;;6.87;;
21827;SDS011;11076;47.942;11.804;2023-02-15T09:35:19;11.70;;;6.23;;
21827;SDS011;11076;47.942;11.804;2023-02-15T09:40:21;10.07;;;7.87;;
21827;SDS011;11076;47.942;11.804;2023-02-15T10:01:05;11.83;;;6.83;;
21827;SDS011;11076;47.942;11.804;2023-02-15T10:17:08;11.87;;;7.60;;
21827;SDS011;11076;47.942;11.804;2023-02-15T10:22:28;10.57;;;7.27;;
21827;SDS011;11076;47.942;11.804;2023-02-15T10:27:47;13.40;;;8.07;;
21827;SDS011;11076;47.942;11.804;2023-02-15T10:32:54;10.17;;;7.13;;
21827;SDS011;11076;47.942;11.804;2023-02-15T10:48:54;12.27;;;7.43;;
21827;SDS011;11076;47.942;11.804;2023-02-15T11:09:51;10.07;;;6.93;;
21827;SDS011;11076;47.942;11.804;2023-02-15T11:15:11;10.80;;;6.53;;
21827;SDS011;11076;47.942;11.804;2023-02-15T11:20:35;11.60;;;7.50;;
21827;SDS011;11076;47.942;11.804;2023-02-15T11:26:12;9.40;;;7.00;;
21827;SDS011;11076;47.942;11.804;2023-02-15T11:31:34;11.63;;;6.83;;
21827;SDS011;11076;47.942;11.804;2023-02-15T11:36:47;9.97;;;6.67;;
21827;SDS011;11076;47.942;11.804;2023-02-15T11:41:53;11.60;;;7.33;;
21827;SDS011;11076;47.942;11.804;2023-02-15T11:46:59;12.73;;;7.37;;
21827;SDS011;11076;47.942;11.804;2023-02-15T11:52:07;9.00;;;6.13;;
21827;SDS011;11076;47.942;11.804;2023-02-15T12:02:25;10.23;;;6.77;;
21827;SDS011;11076;47.942;11.804;2023-02-15T12:07:34;9.03;;;6.90;;
21827;SDS011;11076;47.942;11.804;2023-02-15T12:12:40;12.27;;;7.47;;
21827;SDS011;11076;47.942;11.804;2023-02-15T12:17:49;10.40;;;7.23;;
21827;SDS011;11076;47.942;11.804;2023-02-15T12:22:54;12.10;;;7.77;;
21827;SDS011;11076;47.942;11.804;2023-02-15T12:28:52;8.80;;;7.10;;
21827;SDS011;11076;47.942;11.804;2023-02-15T12:33:34;18.07;;;7.07;;
21827;SDS011;11076;47.942;11.804;2023-02-15T12:38:43;11.43;;;7.33;;
21827;SDS011;11076;47.942;11.804;2023-02-15T12:44:16;9.95;;;6.95;;
21827;SDS011;11076;47.942;11.804;2023-02-15T12:49:21;14.23;;;7.33;;
21827;SDS011;11076;47.942;11.804;2023-02-15T12:54:33;9.85;;;7.18;;
21827;SDS011;11076;47.942;11.804;2023-02-15T12:59:47;10.53;;;7.23;;
21827;SDS011;11076;47.942;11.804;2023-02-15T13:04:53;15.00;;;7.67;;
21827;SDS011;11076;47.942;11.804;2023-02-15T13:09:58;9.95;;;6.97;;
21827;SDS011;11076;47.942;11.804;2023-02-15T13:15:01;13.45;;;7.10;;
21827;SDS011;11076;47.942;11.804;2023-02-15T13:20:09;7.97;;;5.13;;
21827;SDS011;11076;47.942;11.804;2023-02-15T13:25:24;11.13;;;6.85;;
21827;SDS011;11076;47.942;11.804;2023-02-15T13:30:32;7.78;;;6.65;;
21827;SDS011;11076;47.942;11.804;2023-02-15T13:36:27;10.05;;;7.30;;
21827;SDS011;11076;47.942;11.804;2023-02-15T13:41:17;11.57;;;6.90;;
21827;SDS011;11076;47.942;11.804;2023-02-15T13:46:34;12.50;;;6.47;;
21827;SDS011;11076;47.942;11.804;2023-02-15T14:07:56;8.52;;;6.53;;
21827;SDS011;11076;47.942;11.804;2023-02-15T14:34:27;11.00;;;7.57;;
21827;SDS011;11076;47.942;11.804;2023-02-15T14:39:47;14.05;;;7.20;;
21827;SDS011;11076;47.942;11.804;2023-02-15T14:45:22;13.88;;;7.60;;
21827;SDS011;11076;47.942;11.804;2023-02-15T14:50:42;13.30;;;7.70;;
21827;SDS011;11076;47.942;11.804;2023-02-15T14:55:46;11.02;;;8.02;;
21827;SDS011;11076;47.942;11.804;2023-02-15T15:00:48;11.75;;;7.90;;
21827;SDS011;11076;47.942;11.804;2023-02-15T15:05:51;11.15;;;7.43;;
21827;SDS011;11076;47.942;11.804;2023-02-15T15:10:57;19.25;;;8.60;;
21827;SDS011;11076;47.942;11.804;2023-02-15T15:16:47;15.30;;;8.32;;
21827;SDS011;11076;47.942;11.804;2023-02-15T15:21:52;13.38;;;8.93;;
21827;SDS011;11076;47.942;11.804;2023-02-15T15:32:35;14.43;;;8.50;;
21827;SDS011;11076;47.942;11.804;2023-02-15T15:37:46;13.07;;;8.30;;
21827;SDS011;11076;47.942;11.804;2023-02-15T15:43:24;10.70;;;7.60;;
21827;SDS011;11076;47.942;11.804;2023-02-15T15:48:38;20.47;;;9.50;;
21827;SDS011;11076;47.942;11.804;2023-02-15T15:53:43;16.80;;;9.00;;
21827;SDS011;11076;47.942;11.804;2023-02-15T15:58:51;15.77;;;8.83;;
21827;SDS011;11076;47.942;11.804;2023-02-15T16:03:59;14.20;;;8.63;;
21827;SDS011;11076;47.942;11.804;2023-02-15T16:14:25;15.70;;;8.93;;
21827;SDS011;11076;47.942;11.804;2023-02-15T16:19:35;14.30;;;8.30;;
21827;SDS011;11076;47.942;11.804;2023-02-15T16:35:30;14.47;;;9.47;;
21827;SDS011;11076;47.942;11.804;2023-02-15T16:45:38;16.00;;;9.17;;
21827;SDS011;11076;47.942;11.804;2023-02-15T16:50:41;16.80;;;9.70;;
21827;SDS011;11076;47.942;11.804;2023-02-15T16:55:51;16.80;;;9.43;;
21827;SDS011;11076;47.942;11.804;2023-02-15T17:00:59;13.70;;;8.57;;
21827;SDS011;11076;47.942;11.804;2023-02-15T17:06:04;15.50;;;9.70;;
21827;SDS011;11076;47.942;11.804;2023-02-15T17:11:22;17.83;;;9.40;;
21827;SDS011;11076;47.942;11.804;2023-02-15T17:16:40;18.23;;;9.93;;
21827;SDS011;11076;47.942;11.804;2023-02-15T17:21:50;15.07;;;9.70;;
21827;SDS011;11076;47.942;11.804;2023-02-15T17:26:55;21.00;;;9.40;;
21827;SDS011;11076;47.942;11.804;2023-02-15T17:32:02;32.40;;;15.57;;
21827;SDS011;11076;47.942;11.804;2023-02-15T17:37:09;29.77;;;14.80;;
21827;SDS011;11076;47.942;11.804;2023-02-15T17:42:14;21.20;;;12.50;;
21827;SDS011;11076;47.942;11.804;2023-02-15T17:47:17;20.23;;;10.87;;
21827;SDS011;11076;47.942;11.804;2023-02-15T17:52:22;21.83;;;11.30;;
21827;SDS011;11076;47.942;11.804;2023-02-15T17:57:30;78.37;;;32.47;;
21827;SDS011;11076;47.942;11.804;2023-02-15T18:02:33;21.13;;;11.33;;
21827;SDS011;11076;47.942;11.804;2023-02-15T18:07:55;22.13;;;12.40;;
21827;SDS011;11076;47.942;11.804;2023-02-15T18:13:16;26.60;;;14.27;;
21827;SDS011;11076;47.942;11.804;2023-02-15T18:18:18;17.83;;;10.33;;
21827;SDS011;11076;47.942;11.804;2023-02-15T18:23:22;20.33;;;11.50;;
21827;SDS011;11076;47.942;11.804;2023-02-15T18:28:25;18.27;;;11.13;;
21827;SDS011;11076;47.942;11.804;2023-02-15T18:33:37;19.87;;;11.73;;
21827;SDS011;11076;47.942;11.804;2023-02-15T18:38:42;20.73;;;11.43;;
21827;SDS011;11076;47.942;11.804;2023-02-15T18:43:45;20.67;;;11.57;;
21827;SDS011;11076;47.942;11.804;2023-02-15T18:48:49;28.33;;;13.80;;
21827;SDS011;11076;47.942;11.804;2023-02-15T18:53:52;36.63;;;17.70;;
21827;SDS011;11076;47.942;11.804;2023-02-15T18:58:54;35.03;;;16.43;;
21827;SDS011;11076;47.942;11.804;2023-02-15T19:03:57;39.43;;;16.37;;
21827;SDS011;11076;47.942;11.804;2023-02-15T19:08:59;50.33;;;22.30;;
21827;SDS011;11076;47.942;11.804;2023-02-15T19:14:02;29.67;;;16.13;;
21827;SDS011;11076;47.942;11.804;2023-02-15T19:19:05;41.83;;;22.83;;
21827;SDS011;11076;47.942;11.804;2023-02-15T19:24:11;33.10;;;17.77;;
21827;SDS011;11076;47.942;11.804;2023-02-15T19:29:27;31.53;;;16.93;;
21827;SDS011;11076;47.942;11.804;2023-02-15T19:34:31;25.67;;;15.20;;
21827;SDS011;11076;47.942;11.804;2023-02-15T19:39:34;44.83;;;23.00;;
21827;SDS011;11076;47.942;11.804;2023-02-15T19:44:40;33.83;;;17.47;;
21827;SDS011;11076;47.942;11.804;2023-02-15T19:49:44;35.37;;;19.60;;
21827;SDS011;11076;47.942;11.804;2023-02-15T19:54:47;39.80;;;21.17;;
21827;SDS011;11076;47.942;11.804;2023-02-15T19:59:50;44.03;;;22.23;;
21827;SDS011;11076;47.942;11.804;2023-02-15T20:04:52;53.30;;;26.23;;
21827;SDS011;11076;47.942;11.804;2023-02-15T20:09:55;64.33;;;30.93;;
21827;SDS011;11076;47.942;11.804;2023-02-15T20:14:57;53.03;;;25.97;;
21827;SDS011;11076;47.942;11.804;2023-02-15T20:20:00;48.73;;;24.33;;
21827;SDS011;11076;47.942;11.804;2023-02-15T20:25:03;40.43;;;19.23;;
21827;SDS011;11076;47.942;11.804;2023-02-15T20:30:06;29.83;;;16.50;;
21827;SDS011;11076;47.942;11.804;2023-02-15T20:35:21;34.80;;;17.37;;
21827;SDS011;11076;47.942;11.804;2023-02-15T20:40:26;25.60;;;13.97;;
21827;SDS011;11076;47.942;11.804;2023-02-15T20:45:31;28.97;;;13.20;;
21827;SDS011;11076;47.942;11.804;2023-02-15T20:50:34;22.47;;;9.57;;
21827;SDS011;11076;47.942;11.804;2023-02-15T20:55:36;22.47;;;11.03;;
21827;SDS011;11076;47.942;11.804;2023-02-15T21:00:39;20.80;;;10.93;;
21827;SDS011;11076;47.942;11.804;2023-02-15T21:05:41;17.70;;;10.10;;
21827;SDS011;11076;47.942;11.804;2023-02-15T21:10:46;18.67;;;9.60;;
21827;SDS011;11076;47.942;11.804;2023-02-15T21:15:51;13.50;;;7.30;;
21827;SDS011;11076;47.942;11.804;2023-02-15T21:20:55;17.43;;;9.40;;
21827;SDS011;11076;47.942;11.804;2023-02-15T21:26:00;25.20;;;10.63;;
21827;SDS011;11076;47.942;11.804;2023-02-15T21:31:04;20.83;;;10.67;;
21827;SDS011;11076;47.942;11.804;2023-02-15T21:36:12;23.20;;;11.33;;
21827;SDS011;11076;47.942;11.804;2023-02-15T21:41:18;26.30;;;11.07;;
21827;SDS011;11076;47.942;11.804;2023-02-15T21:46:40;18.97;;;8.63;;
21827;SDS011;11076;47.942;11.804;2023-02-15T21:52:01;17.23;;;8.10;;
21827;SDS011;11076;47.942;11.804;2023-02-15T21:57:13;20.67;;;7.73;;
21827;SDS011;11076;47.942;11.804;2023-02-15T22:07:25;14.33;;;7.00;;
21827;SDS011;11076;47.942;11.804;2023-02-15T22:12:27;21.50;;;8.77;;
21827;SDS011;11076;47.942;11.804;2023-02-15T22:17:30;16.40;;;7.63;;
21827;SDS011;11076;47.942;11.804;2023-02-15T22:22:35;10.23;;;5.03;;
21827;SDS011;11076;47.942;11.804;2023-02-15T22:27:38;9.70;;;4.67;;
21827;SDS011;11076;47.942;11.804;2023-02-15T22:32:41;9.13;;;4.43;;
21827;SDS011;11076;47.942;11.804;2023-02-15T22:37:43;11.60;;;4.87;;
21827;SDS011;11076;47.942;11.804;2023-02-15T22:42:47;9.93;;;4.20;;
21827;SDS011;11076;47.942;11.804;2023-02-15T22:47:52;11.07;;;4.63;;
21827;SDS011;11076;47.942;11.804;2023-02-15T22:52:58;7.97;;;4.97;;
21827;SDS011;11076;47.942;11.804;2023-02-15T22:58:01;8.00;;;4.77;;
21827;SDS011;11076;47.942;11.804;2023-02-15T23:03:26;7.30;;;3.50;;
21827;SDS011;11076;47.942;11.804;2023-02-15T23:08:29;5.90;;;3.47;;
21827;SDS011;11076;47.942;11.804;2023-02-15T23:13:32;9.77;;;3.73;;
21827;SDS011;11076;47.942;11.804;2023-02-15T23:18:36;6.77;;;3.27;;
21827;SDS011;11076;47.942;11.804;2023-02-15T23:23:41;3.13;;;2.47;;
21827;SDS011;11076;47.942;11.804;2023-02-15T23:28:45;4.53;;;2.20;;
21827;SDS011;11076;47.942;11.804;2023-02-15T23:33:48;2.60;;;2.00;;
21827;SDS011;11076;47.942;11.804;2023-02-15T23:38:56;2.97;;;1.87;;
21827;SDS011;11076;47.942;11.804;2023-02-15T23:44:21;2.60;;;1.90;;
21827;SDS011;11076;47.942;11.804;2023-02-15T23:49:23;2.77;;;1.50;;
21827;SDS011;11076;47.942;11.804;2023-02-15T23:54:26;3.87;;;1.93;;
21827;SDS011;11076;47.942;11.804;2023-02-15T23:59:29;1.73;;;1.63;;
